Carver, Oregon
Current Conditions -  °F | °C
As of 11:53 PM on Saturday 25 Oct 2014 (Local Time) from KTTD Reporting Station
Broken Clouds Broken Clouds  
Wind Chill: 53°   Ceiling: 6000
Heat Index: 53°   Visibility: 10mi
Dew Point: 47°   Wind: 12mph
Humidity: 80%   Direction: 210°SSW
Pressure: 29.89"   Gusts: NA
Location:  45.4156°N, 122.523°W
Report Text: KTTD 260653Z AUTO 21010KT 10SM BKN060 BKN070 BKN090 12/08 A2989 RMK AO2 RAB29E48 SLP120 P0000 T01170083
Loading
Personal Weather Stations






























Interactive Weather Map
Tropical Storm Tracking
New forecast layout! Learn more

10-Day Weather Forecast

Advertisements
Track Severe Weather on mobile